createdAt,value
2022-08-04T00:00:00.259Z,24.26
2022-08-04T00:03:04.307Z,24.23
2022-08-04T00:05:52.469Z,24.21
2022-08-04T00:08:39.087Z,24.19
2022-08-04T00:11:09.062Z,24.18
2022-08-04T00:13:58.043Z,24.16
2022-08-04T00:16:35.001Z,24.14
2022-08-04T00:19:10.729Z,24.11
2022-08-04T00:21:42.328Z,24.09
2022-08-04T00:24:12.945Z,24.05
2022-08-04T00:26:41.199Z,24.03
2022-08-04T00:29:07.924Z,24.00
2022-08-04T00:31:54.873Z,23.96
2022-08-04T00:34:27.799Z,23.90
2022-08-04T00:36:56.267Z,23.89
2022-08-04T00:39:23.636Z,23.85
2022-08-04T00:42:09.343Z,23.80
2022-08-04T00:44:51.851Z,23.77
2022-08-04T00:47:46.454Z,23.70
2022-08-04T00:50:22.977Z,23.68
2022-08-04T00:53:13.243Z,23.64
2022-08-04T00:56:04.226Z,23.60
2022-08-04T00:58:33.360Z,23.57
2022-08-04T01:01:06.963Z,23.53
2022-08-04T01:03:50.603Z,23.47
2022-08-04T01:06:28.842Z,23.43
2022-08-04T01:09:03.600Z,23.38
2022-08-04T01:11:57.104Z,23.35
2022-08-04T01:15:12.280Z,23.27
2022-08-04T01:17:47.422Z,23.21
2022-08-04T01:20:20.709Z,23.13
2022-08-04T01:23:12.324Z,23.07
2022-08-04T01:25:58.887Z,23.04
2022-08-04T01:29:02.982Z,22.96
2022-08-04T01:32:21.096Z,22.93
2022-08-04T01:35:00.776Z,22.89
2022-08-04T01:37:48.561Z,22.85
2022-08-04T01:40:16.141Z,22.81
2022-08-04T01:42:44.445Z,22.76
2022-08-04T01:45:13.965Z,22.72
2022-08-04T01:47:42.938Z,22.69
2022-08-04T01:50:12.130Z,22.62
2022-08-04T01:52:41.371Z,22.58
2022-08-04T01:55:10.534Z,22.54
2022-08-04T01:57:45.783Z,22.49
2022-08-04T02:00:19.464Z,22.43
2022-08-04T02:02:47.351Z,22.39
2022-08-04T02:05:19.044Z,22.34
2022-08-04T02:07:50.504Z,22.30
2022-08-04T02:10:27.012Z,22.25
2022-08-04T02:13:09.845Z,22.20
2022-08-04T02:15:52.291Z,22.14
2022-08-04T02:18:24.658Z,22.12
2022-08-04T02:20:57.973Z,22.07
2022-08-04T02:23:41.378Z,22.04
2022-08-04T02:26:22.569Z,22.01
2022-08-04T02:29:08.392Z,21.96
2022-08-04T02:31:57.533Z,21.94
2022-08-04T02:34:34.800Z,21.90
2022-08-04T02:37:05.083Z,21.87
2022-08-04T02:39:48.183Z,21.84
2022-08-04T02:42:16.926Z,21.79
2022-08-04T02:44:48.889Z,21.74
2022-08-04T02:47:20.686Z,21.70
2022-08-04T02:49:50.569Z,21.65
2022-08-04T02:52:19.756Z,21.61
2022-08-04T02:54:49.425Z,21.58
2022-08-04T02:57:18.664Z,21.56
2022-08-04T03:00:04.711Z,21.52
2022-08-04T03:02:46.433Z,21.48
2022-08-04T03:05:25.223Z,21.45
2022-08-04T03:08:13.000Z,21.42
2022-08-04T03:10:57.194Z,21.28
2022-08-04T03:14:05.292Z,21.31
2022-08-04T03:16:50.984Z,21.28
2022-08-04T03:19:48.403Z,21.25
2022-08-04T03:22:33.375Z,21.19
2022-08-04T03:25:24.179Z,21.19
2022-08-04T03:28:15.073Z,21.18
2022-08-04T03:30:59.366Z,21.14
2022-08-04T03:33:25.843Z,21.15
2022-08-04T03:36:04.796Z,21.12
2022-08-04T03:38:59.296Z,21.12
2022-08-04T03:41:57.316Z,21.12
2022-08-04T03:44:50.216Z,21.11
2022-08-04T03:47:24.359Z,21.11
2022-08-04T03:50:11.539Z,21.12
2022-08-04T03:53:19.433Z,21.09
2022-08-04T03:56:17.137Z,21.09
2022-08-04T03:58:43.643Z,20.98
2022-08-04T04:01:41.619Z,21.07
2022-08-04T04:04:40.098Z,21.08
2022-08-04T04:07:31.210Z,20.97
2022-08-04T04:10:42.869Z,21.04
2022-08-04T04:13:21.892Z,21.05
2022-08-04T04:16:08.868Z,21.04
2022-08-04T04:18:38.354Z,21.02
2022-08-04T04:21:07.775Z,21.00
2022-08-04T04:23:59.699Z,20.99
2022-08-04T04:26:46.742Z,20.98
2022-08-04T04:29:33.969Z,20.97
2022-08-04T04:32:23.316Z,20.96
2022-08-04T04:35:03.200Z,20.99
2022-08-04T04:37:48.641Z,20.99
2022-08-04T04:40:24.596Z,21.00
2022-08-04T04:43:13.663Z,21.01
2022-08-04T04:46:03.047Z,21.02
2022-08-04T04:48:49.380Z,21.06
2022-08-04T04:51:41.253Z,21.06
2022-08-04T04:54:33.221Z,21.11
2022-08-04T04:57:05.701Z,21.15
2022-08-04T04:59:39.532Z,21.18
2022-08-04T05:02:24.807Z,21.20
2022-08-04T05:05:06.648Z,21.24
2022-08-04T05:07:54.591Z,21.27
2022-08-04T05:10:23.755Z,21.31
2022-08-04T05:14:35.875Z,21.35
2022-08-04T05:16:39.197Z,21.42
2022-08-04T05:19:28.935Z,21.48
2022-08-04T05:22:14.216Z,21.56
2022-08-04T05:24:44.904Z,21.65
2022-08-04T05:27:39.851Z,21.72
2022-08-04T05:30:09.117Z,21.83
2022-08-04T05:32:46.444Z,21.88
2022-08-04T05:35:55.849Z,21.96
2022-08-04T05:38:22.106Z,22.04
2022-08-04T05:40:50.119Z,22.12
2022-08-04T05:43:17.529Z,22.18
2022-08-04T05:45:45.821Z,22.25
2022-08-04T05:48:12.871Z,22.34
2022-08-04T05:50:39.884Z,22.42
2022-08-04T05:53:09.945Z,22.51
2022-08-04T05:55:58.195Z,22.61
2022-08-04T05:58:24.537Z,22.69
2022-08-04T06:00:52.685Z,22.78
2022-08-04T06:03:21.330Z,22.77
2022-08-04T06:05:49.887Z,22.94
2022-08-04T06:08:16.756Z,23.05
2022-08-04T06:10:46.098Z,23.13
2022-08-04T06:13:48.787Z,23.25
2022-08-04T06:16:07.594Z,23.36
2022-08-04T06:20:03.595Z,23.48
2022-08-04T06:21:28.219Z,23.62
2022-08-04T06:24:00.863Z,23.76
2022-08-04T06:26:32.928Z,23.90
2022-08-04T06:29:00.924Z,24.03
2022-08-04T06:32:30.604Z,24.16
2022-08-04T06:34:16.069Z,24.31
2022-08-04T06:36:43.736Z,24.45
2022-08-04T06:39:11.811Z,24.58
2022-08-04T06:42:17.372Z,24.74
2022-08-04T06:44:28.454Z,24.89
2022-08-04T06:46:55.929Z,25.01
2022-08-04T06:49:24.771Z,25.13
2022-08-04T06:51:52.894Z,25.23
2022-08-04T06:54:19.511Z,25.34
2022-08-04T06:56:49.077Z,25.44
2022-08-04T06:59:16.995Z,25.53
2022-08-04T07:01:43.996Z,25.50
2022-08-04T07:04:10.921Z,25.69
2022-08-04T07:06:37.945Z,25.83
2022-08-04T07:09:06.152Z,25.91
2022-08-04T07:11:39.471Z,26.02
2022-08-04T07:14:11.261Z,26.12
2022-08-04T07:16:40.720Z,26.22
2022-08-04T07:19:09.766Z,26.30
2022-08-04T07:21:39.413Z,26.38
2022-08-04T07:24:06.148Z,26.36
2022-08-04T07:26:32.764Z,26.56
2022-08-04T07:28:59.796Z,26.67
2022-08-04T07:31:33.644Z,26.75
2022-08-04T07:34:11.530Z,26.87
2022-08-04T07:36:55.356Z,26.99
2022-08-04T07:39:27.281Z,27.07
2022-08-04T07:41:56.284Z,27.18
2022-08-04T07:44:22.927Z,27.29
2022-08-04T07:46:49.548Z,27.39
2022-08-04T07:49:55.037Z,27.48
2022-08-04T07:52:04.073Z,27.56
2022-08-04T07:54:30.789Z,27.64
2022-08-04T07:56:57.622Z,27.72
2022-08-04T07:59:24.622Z,27.80
2022-08-04T08:01:51.813Z,27.88
2022-08-04T08:04:19.007Z,27.95
2022-08-04T08:06:45.656Z,28.02
2022-08-04T08:09:17.467Z,28.10
2022-08-04T08:12:35.441Z,28.19
2022-08-04T08:14:35.186Z,28.27
2022-08-04T08:17:02.782Z,28.35
2022-08-04T08:19:34.027Z,28.44
2022-08-04T08:22:01.910Z,28.53
2022-08-04T08:24:30.510Z,28.64
2022-08-04T08:26:58.420Z,28.74
2022-08-04T08:29:26.303Z,28.83
2022-08-04T08:31:55.384Z,28.91
2022-08-04T08:34:27.965Z,29.00
2022-08-04T08:37:16.193Z,29.08
2022-08-04T08:39:47.499Z,29.07
2022-08-04T08:42:33.046Z,29.27
2022-08-04T08:45:28.252Z,29.36
2022-08-04T08:48:09.706Z,29.46
2022-08-04T08:51:21.041Z,29.53
2022-08-04T08:54:21.787Z,29.62
2022-08-04T08:57:21.359Z,29.67
2022-08-04T08:59:53.629Z,29.80
2022-08-04T09:02:26.236Z,29.86
2022-08-04T09:05:06.396Z,29.92
2022-08-04T09:07:50.841Z,29.98
2022-08-04T09:10:54.967Z,30.03
2022-08-04T09:13:26.423Z,30.17
2022-08-04T09:16:01.812Z,30.19
2022-08-04T09:18:47.922Z,30.27
2022-08-04T09:21:25.833Z,30.32
2022-08-04T09:24:06.434Z,30.40
2022-08-04T09:26:59.911Z,30.51
2022-08-04T09:30:01.527Z,30.58
2022-08-04T09:32:39.183Z,30.70
2022-08-04T09:35:09.522Z,30.64
2022-08-04T09:37:52.199Z,30.79
2022-08-04T09:40:31.171Z,30.85
2022-08-04T09:43:28.874Z,30.92
2022-08-04T09:46:23.288Z,31.01
2022-08-04T09:48:56.517Z,31.10
2022-08-04T09:51:56.892Z,31.15
2022-08-04T09:54:53.452Z,31.23
2022-08-04T09:57:20.110Z,31.31
2022-08-04T10:00:05.523Z,31.37
2022-08-04T10:02:46.961Z,31.45
2022-08-04T10:05:17.137Z,31.55
2022-08-04T10:08:15.326Z,31.63
2022-08-04T10:10:48.565Z,31.74
2022-08-04T10:13:39.400Z,31.80
2022-08-04T10:16:22.525Z,31.88
2022-08-04T10:18:58.068Z,31.98
2022-08-04T10:21:59.591Z,32.12
2022-08-04T10:25:42.600Z,32.14
2022-08-04T10:28:00.119Z,32.23
2022-08-04T10:30:33.966Z,32.32
2022-08-04T10:33:25.830Z,32.41
2022-08-04T10:36:00.245Z,32.59
2022-08-04T10:38:41.546Z,32.73
2022-08-04T10:41:18.601Z,32.77
2022-08-04T10:43:58.860Z,32.82
2022-08-04T10:46:38.858Z,32.87
2022-08-04T10:49:28.208Z,32.91
2022-08-04T10:52:03.798Z,33.06
2022-08-04T10:54:40.712Z,33.04
2022-08-04T10:57:10.739Z,33.08
2022-08-04T10:59:49.806Z,33.11
2022-08-04T11:02:38.334Z,33.22
2022-08-04T11:05:18.932Z,33.35
2022-08-04T11:07:49.174Z,33.47
2022-08-04T11:10:17.912Z,33.53
2022-08-04T11:12:47.973Z,33.53
2022-08-04T11:15:39.631Z,33.54
2022-08-04T11:18:16.678Z,33.57
2022-08-04T11:20:53.005Z,33.64
2022-08-04T11:23:26.696Z,33.73
2022-08-04T11:26:05.673Z,33.81
2022-08-04T11:29:03.283Z,33.87
2022-08-04T11:31:36.651Z,33.96
2022-08-04T11:34:18.172Z,34.04
2022-08-04T11:37:15.224Z,34.09
2022-08-04T11:39:47.788Z,34.07
2022-08-04T11:42:20.908Z,34.28
2022-08-04T11:44:59.584Z,34.36
2022-08-04T11:47:33.034Z,34.53
2022-08-04T11:50:09.801Z,34.56
2022-08-04T11:52:39.926Z,34.60
2022-08-04T11:55:09.909Z,34.63
2022-08-04T11:57:36.785Z,34.64
2022-08-04T12:00:08.879Z,34.71
2022-08-04T12:02:50.554Z,34.78
2022-08-04T12:05:32.844Z,34.87
2022-08-04T12:08:36.247Z,34.91
2022-08-04T12:11:16.549Z,34.97
2022-08-04T12:14:13.509Z,35.02
2022-08-04T12:16:48.544Z,34.98
2022-08-04T12:19:34.974Z,35.23
2022-08-04T12:22:25.101Z,35.34
2022-08-04T12:25:08.497Z,35.44
2022-08-04T12:27:46.295Z,35.44
2022-08-04T12:30:58.403Z,35.42
2022-08-04T12:33:07.913Z,35.45
2022-08-04T12:36:10.155Z,35.53
2022-08-04T12:38:34.013Z,35.57
2022-08-04T12:41:02.100Z,35.57
2022-08-04T12:43:34.786Z,35.59
2022-08-04T12:46:05.577Z,35.60
2022-08-04T12:48:35.521Z,35.70
2022-08-04T12:51:02.605Z,35.78
2022-08-04T12:53:51.251Z,35.82
2022-08-04T12:56:25.780Z,35.82
2022-08-04T12:58:54.170Z,35.86
2022-08-04T13:02:10.661Z,35.85
2022-08-04T13:04:28.950Z,35.83
2022-08-04T13:07:10.924Z,35.92
2022-08-04T13:09:38.234Z,35.95
2022-08-04T13:12:12.377Z,35.95
2022-08-04T13:14:41.909Z,36.03
2022-08-04T13:17:08.667Z,36.06
2022-08-04T13:19:41.183Z,36.07
2022-08-04T13:22:09.285Z,36.12
2022-08-04T13:24:56.487Z,36.03
2022-08-04T13:27:26.248Z,36.16
2022-08-04T13:29:58.719Z,36.15
2022-08-04T13:32:29.971Z,36.11
2022-08-04T13:34:59.870Z,36.12
2022-08-04T13:37:34.466Z,36.11
2022-08-04T13:40:04.365Z,36.12
2022-08-04T13:42:33.627Z,36.13
2022-08-04T13:45:06.363Z,36.19
2022-08-04T13:47:35.742Z,36.23
2022-08-04T13:50:13.630Z,36.31
2022-08-04T13:52:42.187Z,36.46
2022-08-04T13:55:23.668Z,36.51
2022-08-04T13:57:55.691Z,36.54
2022-08-04T14:00:29.195Z,36.54
2022-08-04T14:03:23.863Z,36.54
2022-08-04T14:06:13.309Z,36.61
2022-08-04T14:08:55.222Z,36.69
2022-08-04T14:12:06.164Z,36.73
2022-08-04T14:14:27.362Z,36.79
2022-08-04T14:17:19.880Z,36.85
2022-08-04T14:19:58.839Z,36.95
2022-08-04T14:22:28.452Z,37.07
2022-08-04T14:25:09.018Z,37.15
2022-08-04T14:27:45.278Z,37.28
2022-08-04T14:30:26.656Z,37.36
2022-08-04T14:34:02.229Z,37.48
2022-08-04T14:35:57.582Z,37.78
2022-08-04T14:38:24.241Z,37.97
2022-08-04T14:40:59.995Z,38.07
2022-08-04T14:43:29.388Z,38.21
2022-08-04T14:46:04.484Z,38.38
2022-08-04T14:48:30.988Z,38.58
2022-08-04T14:50:58.069Z,38.79
2022-08-04T14:53:26.084Z,39.02
2022-08-04T14:55:56.438Z,39.19
2022-08-04T14:58:34.749Z,39.33
2022-08-04T15:01:10.308Z,39.45
2022-08-04T15:03:48.337Z,39.55
2022-08-04T15:06:22.601Z,39.78
2022-08-04T15:08:55.334Z,39.90
2022-08-04T15:11:24.265Z,40.03
2022-08-04T15:13:52.867Z,40.11
2022-08-04T15:16:21.132Z,40.20
2022-08-04T15:18:49.217Z,40.36
2022-08-04T15:21:17.276Z,40.57
2022-08-04T15:23:43.978Z,40.68
2022-08-04T15:26:18.773Z,40.68
2022-08-04T15:28:51.461Z,40.76
2022-08-04T15:32:06.198Z,40.91
2022-08-04T15:34:08.734Z,41.05
2022-08-04T15:36:56.930Z,41.10
2022-08-04T15:39:48.896Z,41.19
2022-08-04T15:42:24.303Z,41.32
2022-08-04T15:44:51.090Z,41.46
2022-08-04T15:47:18.234Z,41.53
2022-08-04T15:49:44.996Z,41.45
2022-08-04T15:52:14.144Z,41.67
2022-08-04T15:54:52.823Z,41.74
2022-08-04T15:57:58.964Z,41.76
2022-08-04T16:00:25.655Z,41.92
2022-08-04T16:02:52.269Z,41.96
2022-08-04T16:05:30.908Z,42.00
2022-08-04T16:07:59.544Z,42.02
2022-08-04T16:10:32.123Z,41.98
2022-08-04T16:13:04.885Z,41.96
2022-08-04T16:15:37.864Z,41.96
2022-08-04T16:18:04.890Z,41.99
2022-08-04T16:20:33.315Z,42.00
2022-08-04T16:23:53.519Z,41.91
2022-08-04T16:26:45.590Z,41.95
2022-08-04T16:29:27.638Z,42.02
2022-08-04T16:32:06.523Z,42.08
2022-08-04T16:34:48.155Z,42.16
2022-08-04T16:37:18.513Z,42.31
2022-08-04T16:39:51.337Z,42.40
2022-08-04T16:42:30.308Z,42.40
2022-08-04T16:45:20.563Z,42.50
2022-08-04T16:47:47.147Z,42.58
2022-08-04T16:50:14.718Z,42.69
2022-08-04T16:52:48.719Z,42.80
2022-08-04T16:55:18.708Z,42.95
2022-08-04T16:57:57.260Z,43.04
2022-08-04T17:00:35.591Z,43.18
2022-08-04T17:03:07.092Z,43.32
2022-08-04T17:05:39.426Z,43.42
2022-08-04T17:10:56.175Z,43.53
2022-08-04T17:14:00.990Z,43.52
2022-08-04T17:16:18.422Z,43.55
2022-08-04T17:18:48.517Z,43.66
2022-08-04T17:21:25.371Z,43.57
2022-08-04T17:24:14.884Z,43.48
2022-08-04T17:26:54.543Z,43.43
2022-08-04T17:29:24.310Z,43.37
2022-08-04T17:32:19.844Z,43.28
2022-08-04T17:34:59.070Z,43.22
2022-08-04T17:37:39.330Z,43.23
2022-08-04T17:40:10.183Z,43.19
2022-08-04T17:42:37.491Z,43.13
2022-08-04T17:45:49.038Z,43.05
2022-08-04T17:47:55.643Z,42.98
2022-08-04T17:50:30.716Z,42.86
2022-08-04T17:53:12.315Z,42.73
2022-08-04T17:55:47.295Z,42.60
2022-08-04T17:58:22.200Z,42.36
2022-08-04T18:01:16.313Z,42.28
2022-08-04T18:03:44.981Z,41.92
2022-08-04T18:06:20.975Z,41.46
2022-08-04T18:08:57.491Z,40.97
2022-08-04T18:11:29.507Z,40.49
2022-08-04T18:14:09.589Z,39.96
2022-08-04T18:16:42.846Z,39.42
2022-08-04T18:19:19.108Z,39.04
2022-08-04T18:21:59.379Z,38.62
2022-08-04T18:24:36.161Z,38.18
2022-08-04T18:27:22.442Z,37.76
2022-08-04T18:30:38.533Z,37.42
2022-08-04T18:32:37.213Z,36.95
2022-08-04T18:35:18.481Z,36.75
2022-08-04T18:38:05.397Z,36.47
2022-08-04T18:40:39.187Z,36.16
2022-08-04T18:43:18.301Z,35.87
2022-08-04T18:45:55.909Z,35.59
2022-08-04T18:48:23.113Z,35.36
2022-08-04T18:51:22.613Z,35.11
2022-08-04T18:53:58.670Z,34.86
2022-08-04T18:56:29.605Z,34.65
2022-08-04T18:58:59.977Z,34.46
2022-08-04T19:01:30.069Z,34.27
2022-08-04T19:04:32.945Z,33.96
2022-08-04T19:07:01.075Z,33.86
2022-08-04T19:09:51.899Z,33.68
2022-08-04T19:12:27.090Z,33.53
2022-08-04T19:14:58.378Z,33.34
2022-08-04T19:17:56.807Z,33.19
2022-08-04T19:20:24.158Z,33.01
2022-08-04T19:24:23.431Z,32.85
2022-08-04T19:25:58.477Z,32.67
2022-08-04T19:28:28.017Z,32.52
2022-08-04T19:30:57.498Z,32.42
2022-08-04T19:33:25.157Z,32.18
2022-08-04T19:35:52.405Z,32.17
2022-08-04T19:38:19.076Z,32.04
2022-08-04T19:43:32.729Z,31.79
2022-08-04T19:45:59.434Z,31.68
2022-08-04T19:48:30.329Z,31.58
2022-08-04T19:50:57.212Z,31.46
2022-08-04T19:53:37.142Z,31.36
2022-08-04T19:56:04.842Z,31.24
2022-08-04T19:58:31.376Z,31.14
2022-08-04T20:00:57.930Z,31.03
2022-08-04T20:04:09.891Z,30.95
2022-08-04T20:06:11.012Z,30.85
2022-08-04T20:08:37.601Z,30.76
2022-08-04T20:11:14.713Z,30.67
2022-08-04T20:13:42.631Z,30.58
2022-08-04T20:19:00.751Z,30.42
2022-08-04T20:21:55.641Z,30.33
2022-08-04T20:24:39.032Z,30.24
2022-08-04T20:27:07.813Z,30.16
2022-08-04T20:29:40.737Z,30.10
2022-08-04T20:32:09.969Z,30.03
2022-08-04T20:34:37.655Z,29.97
2022-08-04T20:37:07.001Z,29.92
2022-08-04T20:39:37.172Z,29.85
2022-08-04T20:42:03.858Z,29.79
2022-08-04T20:44:30.516Z,29.73
2022-08-04T20:46:57.327Z,29.67
2022-08-04T20:49:35.094Z,29.62
2022-08-04T20:52:12.105Z,29.56
2022-08-04T20:54:42.439Z,29.48
2022-08-04T20:57:16.683Z,29.43
2022-08-04T20:59:43.605Z,29.36
2022-08-04T21:02:17.143Z,29.30
2022-08-04T21:04:48.502Z,29.24
2022-08-04T21:07:16.877Z,29.18
2022-08-04T21:09:50.782Z,29.13
2022-08-04T21:12:27.792Z,29.10
2022-08-04T21:14:57.356Z,29.03
2022-08-04T21:17:59.559Z,28.97
2022-08-04T21:20:12.989Z,28.92
2022-08-04T21:22:40.929Z,28.87
2022-08-04T21:25:16.319Z,28.83
2022-08-04T21:27:43.715Z,28.80
2022-08-04T21:30:25.204Z,28.74
2022-08-04T21:32:53.397Z,28.70
2022-08-04T21:35:36.729Z,28.67
2022-08-04T21:38:17.256Z,28.64
2022-08-04T21:40:55.896Z,28.59
2022-08-04T21:43:23.677Z,28.55
2022-08-04T21:45:54.636Z,28.55
2022-08-04T21:48:21.385Z,28.49
2022-08-04T21:50:50.273Z,28.44
2022-08-04T21:53:19.862Z,28.42
2022-08-04T21:56:05.146Z,28.35
2022-08-04T21:58:34.323Z,28.30
2022-08-04T22:01:05.934Z,28.26
2022-08-04T22:03:53.243Z,28.22
2022-08-04T22:06:28.371Z,28.18
2022-08-04T22:08:56.441Z,28.15
2022-08-04T22:11:48.328Z,28.11
2022-08-04T22:14:16.014Z,28.06
2022-08-04T22:16:43.655Z,28.03
2022-08-04T22:19:11.603Z,28.00
2022-08-04T22:21:45.306Z,27.99
2022-08-04T22:24:14.262Z,27.94
2022-08-04T22:26:41.587Z,27.79
2022-08-04T22:29:14.515Z,27.86
2022-08-04T22:31:55.707Z,27.85
2022-08-04T22:34:24.419Z,27.83
2022-08-04T22:36:51.030Z,27.79
2022-08-04T22:39:20.408Z,27.74
2022-08-04T22:42:03.865Z,27.72
2022-08-04T22:44:33.132Z,27.68
2022-08-04T22:47:00.914Z,27.65
2022-08-04T22:49:31.961Z,27.60
2022-08-04T22:51:59.879Z,27.57
2022-08-04T22:54:36.195Z,27.53
2022-08-04T22:57:02.690Z,27.49
2022-08-04T22:59:29.279Z,27.45
2022-08-04T23:02:00.845Z,27.43
2022-08-04T23:04:30.068Z,27.38
2022-08-04T23:06:57.075Z,27.35
2022-08-04T23:09:49.116Z,27.31
2022-08-04T23:12:27.665Z,27.26
2022-08-04T23:14:57.964Z,27.23
2022-08-04T23:17:27.818Z,27.20
2022-08-04T23:19:57.677Z,27.15
2022-08-04T23:22:37.062Z,27.10
2022-08-04T23:25:15.947Z,27.05
2022-08-04T23:27:50.654Z,27.00
2022-08-04T23:30:20.597Z,26.97
2022-08-04T23:32:48.710Z,26.92
2022-08-04T23:35:15.446Z,26.89
2022-08-04T23:37:56.054Z,26.85
2022-08-04T23:40:32.468Z,26.78
2022-08-04T23:43:01.064Z,26.74
2022-08-04T23:46:04.266Z,26.70
2022-08-04T23:48:19.302Z,26.65
2022-08-04T23:50:48.296Z,26.61
2022-08-04T23:53:18.730Z,26.58
2022-08-04T23:55:49.214Z,26.56
2022-08-04T23:58:18.980Z,26.51
